sensor_id;sensor_type;location;lat;lon;timestamp;temperature;humidity
63976;DHT22;50167;47.958;21.780;2023-10-08T00:00:38;17.16;55.20
63976;DHT22;50167;47.958;21.780;2023-10-08T00:03:16;17.15;55.28
63976;DHT22;50167;47.958;21.780;2023-10-08T00:05:48;17.12;55.29
63976;DHT22;50167;47.958;21.780;2023-10-08T00:08:17;17.07;55.36
63976;DHT22;50167;47.958;21.780;2023-10-08T00:10:44;17.02;55.53
63976;DHT22;50167;47.958;21.780;2023-10-08T00:13:12;16.97;55.78
63976;DHT22;50167;47.958;21.780;2023-10-08T00:15:39;16.94;55.90
63976;DHT22;50167;47.958;21.780;2023-10-08T00:18:24;16.88;55.95
63976;DHT22;50167;47.958;21.780;2023-10-08T00:20:50;16.83;56.05
63976;DHT22;50167;47.958;21.780;2023-10-08T00:23:22;16.77;56.27
63976;DHT22;50167;47.958;21.780;2023-10-08T00:25:53;16.72;56.36
63976;DHT22;50167;47.958;21.780;2023-10-08T00:28:21;16.68;56.56
63976;DHT22;50167;47.958;21.780;2023-10-08T00:30:48;16.63;56.46
63976;DHT22;50167;47.958;21.780;2023-10-08T00:33:15;16.60;56.76
63976;DHT22;50167;47.958;21.780;2023-10-08T00:35:42;16.54;56.90
63976;DHT22;50167;47.958;21.780;2023-10-08T00:38:10;16.49;56.77
63976;DHT22;50167;47.958;21.780;2023-10-08T00:40:44;16.47;56.95
63976;DHT22;50167;47.958;21.780;2023-10-08T00:43:34;16.41;56.91
63976;DHT22;50167;47.958;21.780;2023-10-08T00:46:03;16.37;57.24
63976;DHT22;50167;47.958;21.780;2023-10-08T00:48:31;16.33;57.13
63976;DHT22;50167;47.958;21.780;2023-10-08T00:51:03;16.29;57.41
63976;DHT22;50167;47.958;21.780;2023-10-08T00:54:03;16.23;57.20
63976;DHT22;50167;47.958;21.780;2023-10-08T00:56:35;16.20;57.57
63976;DHT22;50167;47.958;21.780;2023-10-08T00:59:20;16.16;57.41
63976;DHT22;50167;47.958;21.780;2023-10-08T01:01:49;16.15;57.64
63976;DHT22;50167;47.958;21.780;2023-10-08T01:04:26;16.12;57.75
63976;DHT22;50167;47.958;21.780;2023-10-08T01:06:56;16.11;57.82
63976;DHT22;50167;47.958;21.780;2023-10-08T01:09:24;16.11;57.98
63976;DHT22;50167;47.958;21.780;2023-10-08T01:12:18;16.12;58.02
63976;DHT22;50167;47.958;21.780;2023-10-08T01:14:56;16.11;58.12
63976;DHT22;50167;47.958;21.780;2023-10-08T01:17:26;16.12;57.67
63976;DHT22;50167;47.958;21.780;2023-10-08T01:19:54;16.09;58.21
63976;DHT22;50167;47.958;21.780;2023-10-08T01:22:24;16.11;57.75
63976;DHT22;50167;47.958;21.780;2023-10-08T01:24:52;16.11;58.35
63976;DHT22;50167;47.958;21.780;2023-10-08T01:27:19;16.11;58.36
63976;DHT22;50167;47.958;21.780;2023-10-08T01:29:49;16.11;58.32
63976;DHT22;50167;47.958;21.780;2023-10-08T01:32:20;16.08;58.17
63976;DHT22;50167;47.958;21.780;2023-10-08T01:34:49;16.08;58.22
63976;DHT22;50167;47.958;21.780;2023-10-08T01:37:17;16.07;57.98
63976;DHT22;50167;47.958;21.780;2023-10-08T01:39:47;16.07;57.82
63976;DHT22;50167;47.958;21.780;2023-10-08T01:42:16;16.05;57.87
63976;DHT22;50167;47.958;21.780;2023-10-08T01:44:48;16.08;57.48
63976;DHT22;50167;47.958;21.780;2023-10-08T01:47:15;16.09;57.29
63976;DHT22;50167;47.958;21.780;2023-10-08T01:49:44;16.16;56.87
63976;DHT22;50167;47.958;21.780;2023-10-08T01:52:12;16.20;56.86
63976;DHT22;50167;47.958;21.780;2023-10-08T01:54:47;16.23;56.70
63976;DHT22;50167;47.958;21.780;2023-10-08T01:57:15;16.26;56.47
63976;DHT22;50167;47.958;21.780;2023-10-08T01:59:41;16.29;56.38
63976;DHT22;50167;47.958;21.780;2023-10-08T02:02:07;16.32;56.45
63976;DHT22;50167;47.958;21.780;2023-10-08T02:04:34;16.35;56.24
63976;DHT22;50167;47.958;21.780;2023-10-08T02:07:03;16.33;56.28
63976;DHT22;50167;47.958;21.780;2023-10-08T02:09:31;16.35;56.27
63976;DHT22;50167;47.958;21.780;2023-10-08T02:11:59;16.33;56.21
63976;DHT22;50167;47.958;21.780;2023-10-08T02:14:25;16.33;56.21
63976;DHT22;50167;47.958;21.780;2023-10-08T02:16:51;16.32;56.38
63976;DHT22;50167;47.958;21.780;2023-10-08T02:19:19;16.29;56.39
63976;DHT22;50167;47.958;21.780;2023-10-08T02:21:47;16.29;56.45
63976;DHT22;50167;47.958;21.780;2023-10-08T02:24:13;16.28;56.49
63976;DHT22;50167;47.958;21.780;2023-10-08T02:26:39;16.22;56.64
63976;DHT22;50167;47.958;21.780;2023-10-08T02:29:06;16.20;56.70
63976;DHT22;50167;47.958;21.780;2023-10-08T02:31:34;16.18;56.89
63976;DHT22;50167;47.958;21.780;2023-10-08T02:34:01;16.13;56.89
63976;DHT22;50167;47.958;21.780;2023-10-08T02:36:27;16.12;57.03
63976;DHT22;50167;47.958;21.780;2023-10-08T02:38:54;16.15;57.08
63976;DHT22;50167;47.958;21.780;2023-10-08T02:41:20;16.13;57.07
63976;DHT22;50167;47.958;21.780;2023-10-08T02:43:48;16.12;57.08
63976;DHT22;50167;47.958;21.780;2023-10-08T02:46:14;16.13;57.19
63976;DHT22;50167;47.958;21.780;2023-10-08T02:48:41;16.15;57.25
63976;DHT22;50167;47.958;21.780;2023-10-08T02:51:08;16.16;57.22
63976;DHT22;50167;47.958;21.780;2023-10-08T02:53:36;16.13;57.46
63976;DHT22;50167;47.958;21.780;2023-10-08T02:56:02;16.12;57.41
63976;DHT22;50167;47.958;21.780;2023-10-08T02:58:30;16.11;57.44
63976;DHT22;50167;47.958;21.780;2023-10-08T03:00:56;16.13;57.49
63976;DHT22;50167;47.958;21.780;2023-10-08T03:03:22;16.13;57.69
63976;DHT22;50167;47.958;21.780;2023-10-08T03:05:52;16.11;57.54
63976;DHT22;50167;47.958;21.780;2023-10-08T03:08:20;16.12;57.49
63976;DHT22;50167;47.958;21.780;2023-10-08T03:10:48;16.11;57.74
63976;DHT22;50167;47.958;21.780;2023-10-08T03:13:16;16.11;57.80
63976;DHT22;50167;47.958;21.780;2023-10-08T03:15:43;16.05;58.01
63976;DHT22;50167;47.958;21.780;2023-10-08T03:18:14;16.08;58.12
63976;DHT22;50167;47.958;21.780;2023-10-08T03:20:42;16.04;58.30
63976;DHT22;50167;47.958;21.780;2023-10-08T03:23:12;16.05;58.43
63976;DHT22;50167;47.958;21.780;2023-10-08T03:25:40;15.99;58.44
63976;DHT22;50167;47.958;21.780;2023-10-08T03:28:11;15.99;58.54
63976;DHT22;50167;47.958;21.780;2023-10-08T03:30:39;15.96;58.60
63976;DHT22;50167;47.958;21.780;2023-10-08T03:33:08;15.92;58.59
63976;DHT22;50167;47.958;21.780;2023-10-08T03:35:36;15.93;58.85
63976;DHT22;50167;47.958;21.780;2023-10-08T03:38:03;15.91;59.02
63976;DHT22;50167;47.958;21.780;2023-10-08T03:40:31;15.88;59.14
63976;DHT22;50167;47.958;21.780;2023-10-08T03:42:59;15.88;59.16
63976;DHT22;50167;47.958;21.780;2023-10-08T03:45:25;15.89;58.97
63976;DHT22;50167;47.958;21.780;2023-10-08T03:48:10;15.86;59.27
63976;DHT22;50167;47.958;21.780;2023-10-08T03:50:38;15.86;59.28
63976;DHT22;50167;47.958;21.780;2023-10-08T03:53:09;15.88;59.17
63976;DHT22;50167;47.958;21.780;2023-10-08T03:55:39;15.92;59.29
63976;DHT22;50167;47.958;21.780;2023-10-08T03:58:09;15.96;59.38
63976;DHT22;50167;47.958;21.780;2023-10-08T04:00:43;15.98;59.28
63976;DHT22;50167;47.958;21.780;2023-10-08T04:03:11;15.99;59.26
63976;DHT22;50167;47.958;21.780;2023-10-08T04:05:38;16.04;59.18
63976;DHT22;50167;47.958;21.780;2023-10-08T04:08:12;16.09;59.16
63976;DHT22;50167;47.958;21.780;2023-10-08T04:10:52;16.13;58.87
63976;DHT22;50167;47.958;21.780;2023-10-08T04:13:36;16.20;58.91
63976;DHT22;50167;47.958;21.780;2023-10-08T04:16:04;16.23;58.79
63976;DHT22;50167;47.958;21.780;2023-10-08T04:18:30;16.26;58.66
63976;DHT22;50167;47.958;21.780;2023-10-08T04:20:56;16.30;58.50
63976;DHT22;50167;47.958;21.780;2023-10-08T04:23:33;16.32;58.43
63976;DHT22;50167;47.958;21.780;2023-10-08T04:26:01;16.35;58.51
63976;DHT22;50167;47.958;21.780;2023-10-08T04:28:28;16.36;58.42
63976;DHT22;50167;47.958;21.780;2023-10-08T04:30:56;16.36;58.50
63976;DHT22;50167;47.958;21.780;2023-10-08T04:33:24;16.36;58.50
63976;DHT22;50167;47.958;21.780;2023-10-08T04:35:52;16.35;58.39
63976;DHT22;50167;47.958;21.780;2023-10-08T04:38:24;16.35;58.36
63976;DHT22;50167;47.958;21.780;2023-10-08T04:40:55;16.36;58.51
63976;DHT22;50167;47.958;21.780;2023-10-08T04:43:24;16.37;58.43
63976;DHT22;50167;47.958;21.780;2023-10-08T04:45:54;16.40;58.29
63976;DHT22;50167;47.958;21.780;2023-10-08T04:48:24;16.39;58.38
63976;DHT22;50167;47.958;21.780;2023-10-08T04:50:51;16.39;58.27
63976;DHT22;50167;47.958;21.780;2023-10-08T04:53:29;16.41;58.20
63976;DHT22;50167;47.958;21.780;2023-10-08T04:56:06;16.39;58.22
63976;DHT22;50167;47.958;21.780;2023-10-08T04:58:35;16.40;58.09
63976;DHT22;50167;47.958;21.780;2023-10-08T05:01:09;16.40;58.12
63976;DHT22;50167;47.958;21.780;2023-10-08T05:03:55;16.41;58.14
63976;DHT22;50167;47.958;21.780;2023-10-08T05:06:30;16.41;58.19
63976;DHT22;50167;47.958;21.780;2023-10-08T05:09:13;16.41;58.05
63976;DHT22;50167;47.958;21.780;2023-10-08T05:11:51;16.41;58.28
63976;DHT22;50167;47.958;21.780;2023-10-08T05:14:20;16.39;58.21
63976;DHT22;50167;47.958;21.780;2023-10-08T05:16:55;16.40;58.13
63976;DHT22;50167;47.958;21.780;2023-10-08T05:19:33;16.41;58.17
63976;DHT22;50167;47.958;21.780;2023-10-08T05:22:10;16.39;58.37
63976;DHT22;50167;47.958;21.780;2023-10-08T05:24:41;16.43;58.33
63976;DHT22;50167;47.958;21.780;2023-10-08T05:27:09;16.40;58.55
63976;DHT22;50167;47.958;21.780;2023-10-08T05:29:37;16.40;58.48
63976;DHT22;50167;47.958;21.780;2023-10-08T05:32:20;16.41;58.56
63976;DHT22;50167;47.958;21.780;2023-10-08T05:34:58;16.41;58.78
63976;DHT22;50167;47.958;21.780;2023-10-08T05:37:26;16.43;58.73
63976;DHT22;50167;47.958;21.780;2023-10-08T05:40:00;16.43;58.62
63976;DHT22;50167;47.958;21.780;2023-10-08T05:42:28;16.46;58.73
63976;DHT22;50167;47.958;21.780;2023-10-08T05:44:54;16.47;58.75
63976;DHT22;50167;47.958;21.780;2023-10-08T05:47:34;16.50;58.67
63976;DHT22;50167;47.958;21.780;2023-10-08T05:50:01;16.53;58.72
63976;DHT22;50167;47.958;21.780;2023-10-08T05:52:46;16.60;58.68
63976;DHT22;50167;47.958;21.780;2023-10-08T05:55:19;16.64;58.61
63976;DHT22;50167;47.958;21.780;2023-10-08T05:58:04;16.67;58.59
63976;DHT22;50167;47.958;21.780;2023-10-08T06:00:44;16.77;58.40
63976;DHT22;50167;47.958;21.780;2023-10-08T06:03:17;16.81;58.41
63976;DHT22;50167;47.958;21.780;2023-10-08T06:06:08;16.90;58.34
63976;DHT22;50167;47.958;21.780;2023-10-08T06:08:41;16.95;58.21
63976;DHT22;50167;47.958;21.780;2023-10-08T06:11:26;16.99;58.39
63976;DHT22;50167;47.958;21.780;2023-10-08T06:14:13;17.07;58.17
63976;DHT22;50167;47.958;21.780;2023-10-08T06:16:44;17.11;58.24
63976;DHT22;50167;47.958;21.780;2023-10-08T06:19:14;17.19;58.04
63976;DHT22;50167;47.958;21.780;2023-10-08T06:21:42;17.25;58.00
63976;DHT22;50167;47.958;21.780;2023-10-08T06:24:09;17.29;57.75
63976;DHT22;50167;47.958;21.780;2023-10-08T06:26:39;17.37;58.67
63976;DHT22;50167;47.958;21.780;2023-10-08T06:29:11;17.45;58.20
63976;DHT22;50167;47.958;21.780;2023-10-08T06:31:48;17.49;57.85
63976;DHT22;50167;47.958;21.780;2023-10-08T06:34:16;17.54;57.76
63976;DHT22;50167;47.958;21.780;2023-10-08T06:36:43;17.60;57.78
63976;DHT22;50167;47.958;21.780;2023-10-08T06:39:09;17.66;57.96
63976;DHT22;50167;47.958;21.780;2023-10-08T06:41:37;17.73;57.84
63976;DHT22;50167;47.958;21.780;2023-10-08T06:44:04;17.80;57.58
63976;DHT22;50167;47.958;21.780;2023-10-08T06:46:35;17.81;57.35
63976;DHT22;50167;47.958;21.780;2023-10-08T06:49:03;17.85;57.94
63976;DHT22;50167;47.958;21.780;2023-10-08T06:51:31;17.88;57.80
63976;DHT22;50167;47.958;21.780;2023-10-08T06:53:58;17.90;57.93
63976;DHT22;50167;47.958;21.780;2023-10-08T06:56:26;17.90;57.85
63976;DHT22;50167;47.958;21.780;2023-10-08T06:58:52;17.97;58.16
63976;DHT22;50167;47.958;21.780;2023-10-08T07:01:22;18.01;58.23
63976;DHT22;50167;47.958;21.780;2023-10-08T07:03:51;18.21;58.15
63976;DHT22;50167;47.958;21.780;2023-10-08T07:06:18;18.43;57.50
63976;DHT22;50167;47.958;21.780;2023-10-08T07:08:59;18.62;56.91
63976;DHT22;50167;47.958;21.780;2023-10-08T07:11:26;18.76;57.12
63976;DHT22;50167;47.958;21.780;2023-10-08T07:13:53;18.88;56.77
63976;DHT22;50167;47.958;21.780;2023-10-08T07:16:20;19.02;56.24
63976;DHT22;50167;47.958;21.780;2023-10-08T07:18:47;19.17;55.86
63976;DHT22;50167;47.958;21.780;2023-10-08T07:21:21;19.34;55.08
63976;DHT22;50167;47.958;21.780;2023-10-08T07:24:09;19.55;55.37
63976;DHT22;50167;47.958;21.780;2023-10-08T07:26:37;19.74;54.88
63976;DHT22;50167;47.958;21.780;2023-10-08T07:29:06;19.90;54.68
63976;DHT22;50167;47.958;21.780;2023-10-08T07:31:37;20.00;55.03
63976;DHT22;50167;47.958;21.780;2023-10-08T07:34:05;19.96;54.43
63976;DHT22;50167;47.958;21.780;2023-10-08T07:36:48;19.84;54.64
63976;DHT22;50167;47.958;21.780;2023-10-08T07:39:16;19.72;54.72
63976;DHT22;50167;47.958;21.780;2023-10-08T07:41:49;19.53;54.99
63976;DHT22;50167;47.958;21.780;2023-10-08T07:44:15;19.38;55.25
63976;DHT22;50167;47.958;21.780;2023-10-08T07:46:41;19.18;55.34
63976;DHT22;50167;47.958;21.780;2023-10-08T07:49:08;19.02;57.31
63976;DHT22;50167;47.958;21.780;2023-10-08T07:51:36;18.74;57.94
63976;DHT22;50167;47.958;21.780;2023-10-08T07:54:03;18.35;58.05
63976;DHT22;50167;47.958;21.780;2023-10-08T07:56:31;18.00;58.69
63976;DHT22;50167;47.958;21.780;2023-10-08T07:58:57;17.74;59.11
63976;DHT22;50167;47.958;21.780;2023-10-08T08:01:24;17.42;59.16
63976;DHT22;50167;47.958;21.780;2023-10-08T08:03:53;17.08;59.25
63976;DHT22;50167;47.958;21.780;2023-10-08T08:06:19;16.81;60.00
63976;DHT22;50167;47.958;21.780;2023-10-08T08:08:45;16.59;60.76
63976;DHT22;50167;47.958;21.780;2023-10-08T08:11:11;16.43;60.97
63976;DHT22;50167;47.958;21.780;2023-10-08T08:13:40;16.18;61.58
63976;DHT22;50167;47.958;21.780;2023-10-08T08:16:11;15.96;61.86
63976;DHT22;50167;47.958;21.780;2023-10-08T08:18:51;15.78;62.28
63976;DHT22;50167;47.958;21.780;2023-10-08T08:21:20;16.22;61.43
63976;DHT22;50167;47.958;21.780;2023-10-08T08:23:49;17.30;57.52
63976;DHT22;50167;47.958;21.780;2023-10-08T08:26:22;17.04;57.42
63976;DHT22;50167;47.958;21.780;2023-10-08T08:28:57;16.40;58.52
63976;DHT22;50167;47.958;21.780;2023-10-08T08:31:26;15.95;59.50
63976;DHT22;50167;47.958;21.780;2023-10-08T08:33:53;15.63;60.44
63976;DHT22;50167;47.958;21.780;2023-10-08T08:36:23;15.33;61.40
63976;DHT22;50167;47.958;21.780;2023-10-08T08:38:50;15.12;62.13
63976;DHT22;50167;47.958;21.780;2023-10-08T08:41:17;15.25;62.07
63976;DHT22;50167;47.958;21.780;2023-10-08T08:43:50;16.23;59.14
63976;DHT22;50167;47.958;21.780;2023-10-08T08:46:18;16.33;58.65
63976;DHT22;50167;47.958;21.780;2023-10-08T08:48:44;15.82;60.29
63976;DHT22;50167;47.958;21.780;2023-10-08T08:51:12;15.34;61.73
63976;DHT22;50167;47.958;21.780;2023-10-08T08:53:40;15.13;62.64
63976;DHT22;50167;47.958;21.780;2023-10-08T08:56:09;16.08;59.53
63976;DHT22;50167;47.958;21.780;2023-10-08T08:58:36;16.47;57.87
63976;DHT22;50167;47.958;21.780;2023-10-08T09:01:06;15.95;58.95
63976;DHT22;50167;47.958;21.780;2023-10-08T09:03:35;15.43;60.20
63976;DHT22;50167;47.958;21.780;2023-10-08T09:06:03;15.03;61.01
63976;DHT22;50167;47.958;21.780;2023-10-08T09:08:37;14.68;61.37
63976;DHT22;50167;47.958;21.780;2023-10-08T09:11:05;14.43;62.02
63976;DHT22;50167;47.958;21.780;2023-10-08T09:13:34;14.20;62.35
63976;DHT22;50167;47.958;21.780;2023-10-08T09:16:08;14.37;61.72
63976;DHT22;50167;47.958;21.780;2023-10-08T09:18:35;15.63;57.82
63976;DHT22;50167;47.958;21.780;2023-10-08T09:21:14;15.44;57.32
63976;DHT22;50167;47.958;21.780;2023-10-08T09:23:43;14.89;58.84
63976;DHT22;50167;47.958;21.780;2023-10-08T09:26:10;14.45;60.06
63976;DHT22;50167;47.958;21.780;2023-10-08T09:28:38;14.15;60.93
63976;DHT22;50167;47.958;21.780;2023-10-08T09:31:05;13.88;62.04
63976;DHT22;50167;47.958;21.780;2023-10-08T09:33:32;14.29;61.59
63976;DHT22;50167;47.958;21.780;2023-10-08T09:35:59;15.34;59.17
63976;DHT22;50167;47.958;21.780;2023-10-08T09:38:27;15.22;59.25
63976;DHT22;50167;47.958;21.780;2023-10-08T09:40:55;14.54;61.93
63976;DHT22;50167;47.958;21.780;2023-10-08T09:43:23;14.57;63.31
63976;DHT22;50167;47.958;21.780;2023-10-08T09:46:26;15.39;61.32
63976;DHT22;50167;47.958;21.780;2023-10-08T09:48:38;15.95;59.86
63976;DHT22;50167;47.958;21.780;2023-10-08T09:51:10;16.05;58.99
63976;DHT22;50167;47.958;21.780;2023-10-08T09:56:36;14.86;63.49
63976;DHT22;50167;47.958;21.780;2023-10-08T09:59:05;15.42;61.77
63976;DHT22;50167;47.958;21.780;2023-10-08T10:01:35;16.02;60.77
63976;DHT22;50167;47.958;21.780;2023-10-08T10:04:09;16.33;58.84
63976;DHT22;50167;47.958;21.780;2023-10-08T10:06:36;15.54;61.05
63976;DHT22;50167;47.958;21.780;2023-10-08T10:09:05;14.71;63.51
63976;DHT22;50167;47.958;21.780;2023-10-08T10:11:36;15.27;62.98
63976;DHT22;50167;47.958;21.780;2023-10-08T10:14:03;16.08;60.77
63976;DHT22;50167;47.958;21.780;2023-10-08T10:16:31;16.37;59.40
63976;DHT22;50167;47.958;21.780;2023-10-08T10:18:59;15.58;61.47
63976;DHT22;50167;47.958;21.780;2023-10-08T10:21:32;15.05;63.49
63976;DHT22;50167;47.958;21.780;2023-10-08T10:24:01;15.80;61.74
63976;DHT22;50167;47.958;21.780;2023-10-08T10:26:33;16.25;60.51
63976;DHT22;50167;47.958;21.780;2023-10-08T10:29:18;16.61;59.37
63976;DHT22;50167;47.958;21.780;2023-10-08T10:31:53;15.63;61.92
63976;DHT22;50167;47.958;21.780;2023-10-08T10:34:26;15.37;63.21
63976;DHT22;50167;47.958;21.780;2023-10-08T10:36:51;16.05;61.14
63976;DHT22;50167;47.958;21.780;2023-10-08T10:39:20;16.59;60.21
63976;DHT22;50167;47.958;21.780;2023-10-08T10:41:56;16.57;59.21
63976;DHT22;50167;47.958;21.780;2023-10-08T10:44:34;15.65;60.64
63976;DHT22;50167;47.958;21.780;2023-10-08T10:47:04;15.02;63.33
63976;DHT22;50167;47.958;21.780;2023-10-08T10:49:48;15.88;61.29
63976;DHT22;50167;47.958;21.780;2023-10-08T10:52:24;16.88;59.83
63976;DHT22;50167;47.958;21.780;2023-10-08T10:55:04;16.83;58.08
63976;DHT22;50167;47.958;21.780;2023-10-08T10:57:35;15.80;60.68
63976;DHT22;50167;47.958;21.780;2023-10-08T11:00:06;15.16;62.57
63976;DHT22;50167;47.958;21.780;2023-10-08T11:02:37;15.60;62.58
63976;DHT22;50167;47.958;21.780;2023-10-08T11:05:06;16.74;59.85
63976;DHT22;50167;47.958;21.780;2023-10-08T11:07:37;17.45;57.38
63976;DHT22;50167;47.958;21.780;2023-10-08T11:10:07;16.84;58.26
63976;DHT22;50167;47.958;21.780;2023-10-08T11:12:35;16.05;60.34
63976;DHT22;50167;47.958;21.780;2023-10-08T11:15:05;15.56;62.67
63976;DHT22;50167;47.958;21.780;2023-10-08T11:17:32;16.26;62.80
63976;DHT22;50167;47.958;21.780;2023-10-08T11:19:59;17.43;58.80
63976;DHT22;50167;47.958;21.780;2023-10-08T11:22:42;17.53;57.43
63976;DHT22;50167;47.958;21.780;2023-10-08T11:25:24;16.86;59.15
63976;DHT22;50167;47.958;21.780;2023-10-08T11:27:52;16.22;60.88
63976;DHT22;50167;47.958;21.780;2023-10-08T11:30:20;15.92;61.91
63976;DHT22;50167;47.958;21.780;2023-10-08T11:32:46;15.75;62.53
63976;DHT22;50167;47.958;21.780;2023-10-08T11:35:17;16.66;61.03
63976;DHT22;50167;47.958;21.780;2023-10-08T11:37:47;17.87;57.18
63976;DHT22;50167;47.958;21.780;2023-10-08T11:40:24;17.47;57.07
63976;DHT22;50167;47.958;21.780;2023-10-08T11:42:58;16.94;58.37
63976;DHT22;50167;47.958;21.780;2023-10-08T11:45:26;17.04;59.32
63976;DHT22;50167;47.958;21.780;2023-10-08T11:47:53;17.50;57.98
63976;DHT22;50167;47.958;21.780;2023-10-08T11:50:27;18.29;56.44
63976;DHT22;50167;47.958;21.780;2023-10-08T11:52:59;18.93;53.76
63976;DHT22;50167;47.958;21.780;2023-10-08T11:55:33;19.24;52.61
63976;DHT22;50167;47.958;21.780;2023-10-08T11:58:08;19.36;51.47
63976;DHT22;50167;47.958;21.780;2023-10-08T12:00:39;20.05;50.49
63976;DHT22;50167;47.958;21.780;2023-10-08T12:03:13;20.82;50.65
63976;DHT22;50167;47.958;21.780;2023-10-08T12:05:41;21.34;46.98
63976;DHT22;50167;47.958;21.780;2023-10-08T12:08:09;21.59;44.35
63976;DHT22;50167;47.958;21.780;2023-10-08T12:10:38;21.66;43.08
63976;DHT22;50167;47.958;21.780;2023-10-08T12:13:06;21.66;42.80
63976;DHT22;50167;47.958;21.780;2023-10-08T12:15:34;21.61;41.15
63976;DHT22;50167;47.958;21.780;2023-10-08T12:18:03;21.21;42.21
63976;DHT22;50167;47.958;21.780;2023-10-08T12:20:38;20.72;42.33
63976;DHT22;50167;47.958;21.780;2023-10-08T12:23:07;20.17;43.85
63976;DHT22;50167;47.958;21.780;2023-10-08T12:25:35;19.77;45.88
63976;DHT22;50167;47.958;21.780;2023-10-08T12:28:04;19.59;45.82
63976;DHT22;50167;47.958;21.780;2023-10-08T12:30:32;19.50;45.93
63976;DHT22;50167;47.958;21.780;2023-10-08T12:33:00;19.31;45.76
63976;DHT22;50167;47.958;21.780;2023-10-08T12:35:27;18.97;46.67
63976;DHT22;50167;47.958;21.780;2023-10-08T12:37:55;18.93;46.56
63976;DHT22;50167;47.958;21.780;2023-10-08T12:40:22;19.12;45.97
63976;DHT22;50167;47.958;21.780;2023-10-08T12:42:53;19.63;44.63
63976;DHT22;50167;47.958;21.780;2023-10-08T12:45:20;19.96;43.97
63976;DHT22;50167;47.958;21.780;2023-10-08T12:47:51;20.07;44.60
63976;DHT22;50167;47.958;21.780;2023-10-08T12:50:18;20.11;44.22
63976;DHT22;50167;47.958;21.780;2023-10-08T12:52:50;20.31;43.44
63976;DHT22;50167;47.958;21.780;2023-10-08T12:55:22;20.83;41.18
63976;DHT22;50167;47.958;21.780;2023-10-08T12:57:52;21.04;40.41
63976;DHT22;50167;47.958;21.780;2023-10-08T13:00:23;20.87;40.21
63976;DHT22;50167;47.958;21.780;2023-10-08T13:02:50;20.66;40.53
63976;DHT22;50167;47.958;21.780;2023-10-08T13:05:21;20.53;40.47
63976;DHT22;50167;47.958;21.780;2023-10-08T13:07:49;20.59;39.94
63976;DHT22;50167;47.958;21.780;2023-10-08T13:10:15;20.69;39.00
63976;DHT22;50167;47.958;21.780;2023-10-08T13:12:42;20.72;38.58
63976;DHT22;50167;47.958;21.780;2023-10-08T13:15:09;20.93;37.46
63976;DHT22;50167;47.958;21.780;2023-10-08T13:17:35;21.30;37.32
63976;DHT22;50167;47.958;21.780;2023-10-08T13:20:02;21.66;36.91
63976;DHT22;50167;47.958;21.780;2023-10-08T13:22:28;21.85;37.13
63976;DHT22;50167;47.958;21.780;2023-10-08T13:24:55;21.72;37.45
63976;DHT22;50167;47.958;21.780;2023-10-08T13:27:22;21.30;37.40
63976;DHT22;50167;47.958;21.780;2023-10-08T13:29:49;20.68;38.47
63976;DHT22;50167;47.958;21.780;2023-10-08T13:32:17;20.15;39.19
63976;DHT22;50167;47.958;21.780;2023-10-08T13:34:44;19.60;40.15
63976;DHT22;50167;47.958;21.780;2023-10-08T13:37:12;19.08;41.32
63976;DHT22;50167;47.958;21.780;2023-10-08T13:39:40;18.70;42.10
63976;DHT22;50167;47.958;21.780;2023-10-08T13:42:06;18.28;43.26
63976;DHT22;50167;47.958;21.780;2023-10-08T13:44:32;17.95;43.92
63976;DHT22;50167;47.958;21.780;2023-10-08T13:47:01;17.77;44.87
63976;DHT22;50167;47.958;21.780;2023-10-08T13:49:29;17.62;45.25
63976;DHT22;50167;47.958;21.780;2023-10-08T13:51:55;17.54;45.46
63976;DHT22;50167;47.958;21.780;2023-10-08T13:54:22;17.50;44.96
63976;DHT22;50167;47.958;21.780;2023-10-08T13:56:50;17.50;44.50
63976;DHT22;50167;47.958;21.780;2023-10-08T13:59:16;17.40;43.85
63976;DHT22;50167;47.958;21.780;2023-10-08T14:01:44;17.36;43.09
63976;DHT22;50167;47.958;21.780;2023-10-08T14:04:16;17.23;43.89
63976;DHT22;50167;47.958;21.780;2023-10-08T14:06:44;17.18;43.76
63976;DHT22;50167;47.958;21.780;2023-10-08T14:09:12;17.14;43.89
63976;DHT22;50167;47.958;21.780;2023-10-08T14:11:40;17.15;44.30
63976;DHT22;50167;47.958;21.780;2023-10-08T14:14:06;17.16;43.79
63976;DHT22;50167;47.958;21.780;2023-10-08T14:16:39;17.16;43.52
63976;DHT22;50167;47.958;21.780;2023-10-08T14:19:10;17.21;42.87
63976;DHT22;50167;47.958;21.780;2023-10-08T14:21:41;17.16;42.35
63976;DHT22;50167;47.958;21.780;2023-10-08T14:24:19;17.08;42.25
63976;DHT22;50167;47.958;21.780;2023-10-08T14:26:46;17.08;41.92
63976;DHT22;50167;47.958;21.780;2023-10-08T14:29:17;16.98;41.82
63976;DHT22;50167;47.958;21.780;2023-10-08T14:31:43;16.94;41.83
63976;DHT22;50167;47.958;21.780;2023-10-08T14:34:11;16.91;42.18
63976;DHT22;50167;47.958;21.780;2023-10-08T14:36:46;17.07;41.42
63976;DHT22;50167;47.958;21.780;2023-10-08T14:39:32;17.26;41.20
63976;DHT22;50167;47.958;21.780;2023-10-08T14:42:17;17.39;41.90
63976;DHT22;50167;47.958;21.780;2023-10-08T14:45:04;17.58;41.70
63976;DHT22;50167;47.958;21.780;2023-10-08T14:47:35;17.72;41.86
63976;DHT22;50167;47.958;21.780;2023-10-08T14:50:01;18.23;41.42
63976;DHT22;50167;47.958;21.780;2023-10-08T14:52:29;18.88;40.92
63976;DHT22;50167;47.958;21.780;2023-10-08T14:54:56;19.11;40.93
63976;DHT22;50167;47.958;21.780;2023-10-08T14:57:23;18.83;41.50
63976;DHT22;50167;47.958;21.780;2023-10-08T14:59:52;18.33;42.29
63976;DHT22;50167;47.958;21.780;2023-10-08T15:02:18;17.83;43.39
63976;DHT22;50167;47.958;21.780;2023-10-08T15:04:45;17.36;44.12
63976;DHT22;50167;47.958;21.780;2023-10-08T15:07:12;16.94;44.54
63976;DHT22;50167;47.958;21.780;2023-10-08T15:09:40;16.53;45.06
63976;DHT22;50167;47.958;21.780;2023-10-08T15:12:07;16.19;45.53
63976;DHT22;50167;47.958;21.780;2023-10-08T15:14:34;15.92;46.03
63976;DHT22;50167;47.958;21.780;2023-10-08T15:17:01;15.73;46.59
63976;DHT22;50167;47.958;21.780;2023-10-08T15:19:27;15.53;46.86
63976;DHT22;50167;47.958;21.780;2023-10-08T15:21:53;15.36;47.01
63976;DHT22;50167;47.958;21.780;2023-10-08T15:24:23;15.16;47.31
63976;DHT22;50167;47.958;21.780;2023-10-08T15:26:52;14.95;47.46
63976;DHT22;50167;47.958;21.780;2023-10-08T15:29:20;14.79;47.60
63976;DHT22;50167;47.958;21.780;2023-10-08T15:31:49;14.64;47.73
63976;DHT22;50167;47.958;21.780;2023-10-08T15:34:17;14.48;47.82
63976;DHT22;50167;47.958;21.780;2023-10-08T15:36:43;14.36;47.83